createdAt,value
2022-12-15T00:01:09.772Z,58.5
2022-12-15T00:02:22.137Z,61.8
2022-12-15T00:03:35.252Z,57.8
2022-12-15T00:04:47.044Z,60.3
2022-12-15T00:05:59.086Z,61.6
2022-12-15T00:07:11.312Z,59.1
2022-12-15T00:08:23.630Z,60.4
2022-12-15T00:09:35.937Z,59.6
2022-12-15T00:10:48.064Z,59.5
2022-12-15T00:12:00.165Z,59
2022-12-15T00:13:12.426Z,59.1
2022-12-15T00:14:24.609Z,59.8
2022-12-15T00:15:37.019Z,57
2022-12-15T00:16:52.190Z,60.6
2022-12-15T00:18:04.366Z,61.6
2022-12-15T00:19:16.568Z,59.2
2022-12-15T00:20:29.012Z,58.5
2022-12-15T00:21:41.075Z,61.5
2022-12-15T00:22:53.333Z,59.1
2022-12-15T00:24:10.545Z,62.8
2022-12-15T00:25:22.864Z,60.5
2022-12-15T00:26:35.002Z,60
2022-12-15T00:27:47.288Z,57.7
2022-12-15T00:28:59.332Z,59.6
2022-12-15T00:30:11.598Z,59.7
2022-12-15T00:31:23.888Z,60.8
2022-12-15T00:32:36.072Z,57.5
2022-12-15T00:33:48.325Z,61.9
2022-12-15T00:35:00.424Z,59.6
2022-12-15T00:36:12.786Z,61.4
2022-12-15T00:37:24.984Z,61.8
2022-12-15T00:38:37.212Z,62.6
2022-12-15T00:39:47.425Z,63.9
2022-12-15T00:40:54.632Z,59.1
2022-12-15T00:42:04.693Z,61.7
2022-12-15T00:43:12.341Z,65.6
2022-12-15T00:44:20.839Z,65.2
2022-12-15T00:45:26.609Z,65
2022-12-15T00:46:38.992Z,63.6
2022-12-15T00:47:51.164Z,60.3
2022-12-15T00:48:58.215Z,62.5
2022-12-15T00:50:05.238Z,58.7
2022-12-15T00:51:17.573Z,60.3
2022-12-15T00:52:24.629Z,62.5
2022-12-15T00:53:36.994Z,59.1
2022-12-15T00:54:49.116Z,60
2022-12-15T00:56:01.320Z,63.4
2022-12-15T00:57:13.482Z,58.7
2022-12-15T00:58:25.780Z,58
2022-12-15T00:59:38.156Z,61.1
2022-12-15T01:00:50.244Z,57.5
2022-12-15T01:02:02.387Z,59.9
2022-12-15T01:03:14.680Z,57.2
2022-12-15T01:04:26.840Z,57.9
2022-12-15T01:05:39.201Z,57.6
2022-12-15T01:06:51.370Z,59.2
2022-12-15T01:08:03.368Z,58
2022-12-15T01:09:15.664Z,57.6
2022-12-15T01:10:27.916Z,57.8
2022-12-15T01:11:40.177Z,53
2022-12-15T01:12:52.604Z,54.5
2022-12-15T01:14:04.987Z,57.1
2022-12-15T01:15:17.345Z,55
2022-12-15T01:16:29.549Z,57.5
2022-12-15T01:17:41.829Z,56.5
2022-12-15T01:18:54.152Z,56.3
2022-12-15T01:20:06.613Z,58
2022-12-15T01:21:21.904Z,56.2
2022-12-15T01:22:26.147Z,56.4
2022-12-15T01:23:33.996Z,54
2022-12-15T01:24:40.780Z,56.3
2022-12-15T01:25:49.542Z,54.9
2022-12-15T01:26:55.052Z,58.4
2022-12-15T01:28:02.092Z,56
2022-12-15T01:29:09.228Z,56.7
2022-12-15T01:30:16.380Z,57.1
2022-12-15T01:31:23.629Z,53.9
2022-12-15T01:32:30.701Z,54.1
2022-12-15T01:33:37.817Z,57.7
2022-12-15T01:34:44.946Z,55.2
2022-12-15T01:35:52.044Z,52.7
2022-12-15T01:36:59.115Z,54
2022-12-15T01:38:06.411Z,54.1
2022-12-15T01:39:13.393Z,55.7
2022-12-15T01:40:20.529Z,53.6
2022-12-15T01:41:32.776Z,54.2
2022-12-15T01:42:39.905Z,53.1
2022-12-15T01:43:47.009Z,53.9
2022-12-15T01:44:54.174Z,52.8
2022-12-15T01:46:01.260Z,53.4
2022-12-15T01:47:13.535Z,54.6
2022-12-15T01:48:20.601Z,52.9
2022-12-15T01:49:32.889Z,55.5
2022-12-15T01:50:40.073Z,53.6
2022-12-15T01:51:47.248Z,54.1
2022-12-15T01:52:54.455Z,57.4
2022-12-15T01:54:01.307Z,55.5
2022-12-15T01:55:08.441Z,57.8
2022-12-15T01:56:15.649Z,55.1
2022-12-15T01:57:22.765Z,56
2022-12-15T01:58:30.145Z,55.6
2022-12-15T01:59:37.009Z,56.2
2022-12-15T02:00:44.197Z,55
2022-12-15T02:01:51.648Z,53.2
2022-12-15T02:02:58.439Z,52.2
2022-12-15T02:04:05.495Z,55.8
2022-12-15T02:05:12.825Z,50.7
2022-12-15T02:06:19.788Z,54.1
2022-12-15T02:07:27.004Z,49.9
2022-12-15T02:08:34.051Z,51.8
2022-12-15T02:09:41.242Z,54.2
2022-12-15T02:10:48.460Z,54.4
2022-12-15T02:12:03.496Z,53
2022-12-15T02:13:15.736Z,54.8
2022-12-15T02:14:28.640Z,59.5
2022-12-15T02:15:35.621Z,58
2022-12-15T02:16:42.843Z,61.2
2022-12-15T02:17:52.403Z,56.9
2022-12-15T02:19:10.141Z,62.8
2022-12-15T02:20:20.669Z,59.2
2022-12-15T02:21:38.329Z,61.3
2022-12-15T02:22:45.300Z,61.1
2022-12-15T02:24:02.529Z,61.2
2022-12-15T02:25:19.965Z,60.4
2022-12-15T02:26:35.173Z,58.3
2022-12-15T02:27:52.668Z,58.6
2022-12-15T02:29:05.232Z,61
2022-12-15T02:30:17.337Z,57.1
2022-12-15T02:31:29.654Z,59.4
2022-12-15T02:32:44.948Z,58
2022-12-15T02:34:02.615Z,61.7
2022-12-15T02:35:14.848Z,60.4
2022-12-15T02:36:27.272Z,59.9
2022-12-15T02:37:36.812Z,58.9
2022-12-15T02:38:43.920Z,58.9
2022-12-15T02:39:51.052Z,54.1
2022-12-15T02:40:58.115Z,56.2
2022-12-15T02:42:05.263Z,57.7
2022-12-15T02:43:15.388Z,55.7
2022-12-15T02:44:22.656Z,61
2022-12-15T02:45:39.926Z,60.2
2022-12-15T02:46:53.180Z,57.7
2022-12-15T02:48:10.370Z,58.4
2022-12-15T02:49:27.746Z,55.4
2022-12-15T02:50:39.931Z,59.2
2022-12-15T02:51:57.124Z,59.3
2022-12-15T02:53:12.390Z,57
2022-12-15T02:54:27.196Z,56.2
2022-12-15T02:55:42.134Z,55.2
2022-12-15T02:56:54.438Z,61.6
2022-12-15T02:58:04.461Z,59.8
2022-12-15T02:59:21.945Z,59.6
2022-12-15T03:00:28.812Z,59.8
2022-12-15T03:01:36.040Z,59
2022-12-15T03:02:43.303Z,56
2022-12-15T03:03:50.361Z,55.7
2022-12-15T03:04:57.267Z,59.9
2022-12-15T03:06:04.400Z,54.8
2022-12-15T03:07:11.539Z,56.9
2022-12-15T03:08:18.732Z,55.3
2022-12-15T03:09:26.008Z,58.6
2022-12-15T03:10:33.317Z,57.2
2022-12-15T03:11:40.141Z,59.5
2022-12-15T03:12:47.411Z,58.4
2022-12-15T03:13:54.503Z,56
2022-12-15T03:15:01.836Z,57.3
2022-12-15T03:16:09.245Z,52.1
2022-12-15T03:17:16.420Z,55.2
2022-12-15T03:18:23.485Z,54
2022-12-15T03:19:30.564Z,54.5
2022-12-15T03:20:37.713Z,51.1
2022-12-15T03:21:44.891Z,53
2022-12-15T03:22:52.260Z,53.8
2022-12-15T03:23:59.593Z,52.6
2022-12-15T03:25:06.740Z,51.7
2022-12-15T03:26:13.947Z,53.9
2022-12-15T03:27:20.972Z,53.9
2022-12-15T03:28:28.258Z,54
2022-12-15T03:29:35.608Z,58.5
2022-12-15T03:30:42.599Z,55.4
2022-12-15T03:31:50.191Z,55.8
2022-12-15T03:32:56.820Z,57.7
2022-12-15T03:34:03.894Z,56.2
2022-12-15T03:35:11.084Z,57.3
2022-12-15T03:36:18.180Z,53.5
2022-12-15T03:37:25.366Z,53.1
2022-12-15T03:38:32.555Z,51.6
2022-12-15T03:39:39.608Z,53.8
2022-12-15T03:40:46.705Z,54.1
2022-12-15T03:41:53.917Z,57.4
2022-12-15T03:43:00.923Z,56.4
2022-12-15T03:44:08.229Z,52.8
2022-12-15T03:45:15.159Z,54.1
2022-12-15T03:46:24.919Z,49.3
2022-12-15T03:47:32.109Z,51
2022-12-15T03:48:39.211Z,47.5
2022-12-15T03:49:46.356Z,47.3
2022-12-15T03:50:53.641Z,51.7
2022-12-15T03:52:00.520Z,50.8
2022-12-15T03:53:07.736Z,51
2022-12-15T03:54:14.892Z,50.1
2022-12-15T03:55:21.980Z,52.7
2022-12-15T03:56:29.431Z,49.8
2022-12-15T03:57:36.344Z,59
2022-12-15T03:58:43.376Z,57.2
2022-12-15T03:59:50.712Z,62.8
2022-12-15T04:00:57.647Z,61.1
2022-12-15T04:02:11.036Z,62.4
2022-12-15T04:03:17.982Z,59
2022-12-15T04:04:25.391Z,59.5
2022-12-15T04:05:32.276Z,59.4
2022-12-15T04:06:39.496Z,59.6
2022-12-15T04:07:46.688Z,55.7
2022-12-15T04:08:53.828Z,53.9
2022-12-15T04:10:00.814Z,54.6
2022-12-15T04:11:07.973Z,53.1
2022-12-15T04:12:15.140Z,52
2022-12-15T04:13:22.317Z,51.1
2022-12-15T04:14:29.439Z,49.6
2022-12-15T04:15:36.586Z,47.6
2022-12-15T04:16:43.803Z,47.7
2022-12-15T04:17:50.785Z,46.7
2022-12-15T04:18:58.008Z,40.7
2022-12-15T04:20:10.067Z,44.2
2022-12-15T04:21:17.332Z,42.3
2022-12-15T04:22:24.451Z,41.8
2022-12-15T04:23:31.882Z,43.4
2022-12-15T04:24:38.687Z,41.8
2022-12-15T04:25:51.039Z,43.7
2022-12-15T04:27:03.144Z,40.9
2022-12-15T04:28:15.308Z,40.8
2022-12-15T04:29:27.551Z,39.8
2022-12-15T04:30:39.870Z,39.5
2022-12-15T04:31:55.430Z,37.9
2022-12-15T04:33:08.001Z,39.8
2022-12-15T04:34:19.972Z,39.8
2022-12-15T04:35:32.239Z,40.5
2022-12-15T04:36:44.520Z,39
2022-12-15T04:37:56.779Z,40.8
2022-12-15T04:39:08.851Z,39.9
2022-12-15T04:40:21.063Z,38.9
2022-12-15T04:41:33.375Z,40.2
2022-12-15T04:42:45.563Z,39.7
2022-12-15T04:43:58.015Z,40.2
2022-12-15T04:45:13.180Z,38.8
2022-12-15T04:46:22.835Z,41
2022-12-15T04:47:34.995Z,39.8
2022-12-15T04:48:47.167Z,41
2022-12-15T04:49:59.312Z,41.2
2022-12-15T04:51:11.617Z,39.6
2022-12-15T04:52:23.792Z,46
2022-12-15T04:53:36.040Z,42.5
2022-12-15T04:54:48.275Z,41.8
2022-12-15T04:56:00.451Z,43.5
2022-12-15T04:57:15.158Z,41.1
2022-12-15T04:58:27.468Z,40.4
2022-12-15T04:59:39.636Z,40.1
2022-12-15T05:00:51.915Z,40.9
2022-12-15T05:02:04.268Z,42.4
2022-12-15T05:03:18.476Z,42.3
2022-12-15T05:04:28.528Z,41
2022-12-15T05:05:40.680Z,42.4
2022-12-15T05:06:53.180Z,40.8
2022-12-15T05:08:05.619Z,40.3
2022-12-15T05:09:17.843Z,40.8
2022-12-15T05:10:30.038Z,43.5
2022-12-15T05:11:42.286Z,43
2022-12-15T05:12:54.903Z,44.4
2022-12-15T05:14:09.678Z,43.5
2022-12-15T05:15:21.942Z,45.5
2022-12-15T05:16:34.195Z,45.1
2022-12-15T05:17:46.658Z,45.2
2022-12-15T05:18:58.594Z,43.1
2022-12-15T05:20:10.736Z,45
2022-12-15T05:21:22.966Z,42.3
2022-12-15T05:22:35.231Z,39.9
2022-12-15T05:23:47.595Z,41
2022-12-15T05:24:59.750Z,40.6
2022-12-15T05:26:11.816Z,39.6
2022-12-15T05:27:24.055Z,41.4
2022-12-15T05:28:36.328Z,40.4
2022-12-15T05:29:48.495Z,39.4
2022-12-15T05:31:00.622Z,39.9
2022-12-15T05:32:12.839Z,39.2
2022-12-15T05:33:20.152Z,39.3
2022-12-15T05:34:27.202Z,38.8
2022-12-15T05:35:34.226Z,38.2
2022-12-15T05:36:41.355Z,39.4
2022-12-15T05:37:48.539Z,39.6
2022-12-15T05:38:55.687Z,39.6
2022-12-15T05:40:02.914Z,41.3
2022-12-15T05:41:10.375Z,39.9
2022-12-15T05:42:17.482Z,38
2022-12-15T05:43:26.473Z,41
2022-12-15T05:44:31.863Z,41.5
2022-12-15T05:45:38.972Z,38.7
2022-12-15T05:46:46.314Z,37
2022-12-15T05:47:53.259Z,38.3
2022-12-15T05:49:00.295Z,36.4
2022-12-15T05:50:07.650Z,38.3
2022-12-15T05:51:15.042Z,35.9
2022-12-15T05:52:22.254Z,35.8
2022-12-15T05:53:29.752Z,36.6
2022-12-15T05:54:36.652Z,37.6
2022-12-15T05:55:43.580Z,36.6
2022-12-15T05:56:50.778Z,36.9
2022-12-15T05:57:57.979Z,35.6
2022-12-15T05:59:04.959Z,35.4
2022-12-15T06:00:12.297Z,37.1
2022-12-15T06:01:19.337Z,35.4
2022-12-15T06:02:26.508Z,36.5
2022-12-15T06:03:33.912Z,36.7
2022-12-15T06:04:40.782Z,37.9
2022-12-15T06:05:51.753Z,38.2
2022-12-15T06:06:54.948Z,38
2022-12-15T06:08:01.974Z,37.9
2022-12-15T06:09:09.130Z,38.6
2022-12-15T06:10:16.206Z,37.5
2022-12-15T06:11:23.315Z,40.1
2022-12-15T06:12:30.551Z,38.1
2022-12-15T06:13:38.010Z,43.1
2022-12-15T06:14:45.337Z,41.8
2022-12-15T06:15:52.456Z,44.9
2022-12-15T06:17:02.585Z,42.6
2022-12-15T06:18:09.659Z,43.2
2022-12-15T06:19:16.793Z,43.7
2022-12-15T06:20:24.213Z,42.9
2022-12-15T06:21:31.289Z,42
2022-12-15T06:22:44.223Z,41.3
2022-12-15T06:23:48.446Z,41.2
2022-12-15T06:24:55.662Z,40
2022-12-15T06:26:02.606Z,40.4
2022-12-15T06:27:15.333Z,39.1
2022-12-15T06:28:22.504Z,40.7
2022-12-15T06:29:29.655Z,41.1
2022-12-15T06:30:36.771Z,41.5
2022-12-15T06:31:44.099Z,42.3
2022-12-15T06:32:51.179Z,40.8
2022-12-15T06:34:01.944Z,43.7
2022-12-15T06:35:05.218Z,44.2
2022-12-15T06:36:12.435Z,46.1
2022-12-15T06:37:19.662Z,45.7
2022-12-15T06:38:26.884Z,44.8
2022-12-15T06:39:33.806Z,44.9
2022-12-15T06:40:40.902Z,45.5
2022-12-15T06:41:48.135Z,44.6
2022-12-15T06:42:55.309Z,44.8
2022-12-15T06:44:02.318Z,46.9
2022-12-15T06:45:09.601Z,44.8
2022-12-15T06:46:16.628Z,43.3
2022-12-15T06:47:23.708Z,44
2022-12-15T06:48:30.816Z,45.5
2022-12-15T06:49:38.011Z,45.5
2022-12-15T06:50:45.131Z,45.3
2022-12-15T06:51:52.894Z,45.1
2022-12-15T06:53:00.314Z,45.9
2022-12-15T06:54:07.403Z,45.6
2022-12-15T06:55:14.617Z,45
2022-12-15T06:56:25.637Z,45.4
2022-12-15T06:57:31.972Z,45.9
2022-12-15T06:58:39.102Z,45.3
2022-12-15T06:59:46.397Z,44.6
2022-12-15T07:00:53.340Z,42.3
2022-12-15T07:02:00.693Z,42.3
2022-12-15T07:03:10.608Z,41
2022-12-15T07:04:17.798Z,42.7
2022-12-15T07:05:24.854Z,41.8
2022-12-15T07:06:32.034Z,42.9
2022-12-15T07:07:39.130Z,41.1
2022-12-15T07:08:46.295Z,40.2
2022-12-15T07:09:53.301Z,38.9
2022-12-15T07:11:00.454Z,37.7
2022-12-15T07:12:07.755Z,38.5
2022-12-15T07:13:15.278Z,38.4
2022-12-15T07:14:22.316Z,37.9
2022-12-15T07:15:29.514Z,36.7
2022-12-15T07:16:36.687Z,39.2
2022-12-15T07:17:43.811Z,39.2
2022-12-15T07:18:51.049Z,40.5
2022-12-15T07:19:58.507Z,39
2022-12-15T07:21:05.542Z,40
2022-12-15T07:22:12.674Z,40.9
2022-12-15T07:23:29.554Z,40.8
2022-12-15T07:24:26.964Z,40.9
2022-12-15T07:25:34.599Z,43.4
2022-12-15T07:26:41.755Z,42.3
2022-12-15T07:27:48.893Z,39.6
2022-12-15T07:28:56.231Z,40.8
2022-12-15T07:30:03.034Z,39.2
2022-12-15T07:31:10.700Z,37.9
2022-12-15T07:32:17.936Z,36.4
2022-12-15T07:33:25.214Z,39.4
2022-12-15T07:34:32.151Z,39.1
2022-12-15T07:35:39.214Z,37.6
2022-12-15T07:36:51.736Z,39.3
2022-12-15T07:37:53.534Z,39.2
2022-12-15T07:39:00.551Z,38.1
2022-12-15T07:40:07.684Z,38.4
2022-12-15T07:41:14.766Z,40
2022-12-15T07:42:22.332Z,39.2
2022-12-15T07:43:29.939Z,42.2
2022-12-15T07:44:36.866Z,40
2022-12-15T07:45:48.291Z,38.6
2022-12-15T07:46:56.148Z,41.3
2022-12-15T07:48:03.335Z,40.9
2022-12-15T07:49:10.246Z,43
2022-12-15T07:50:17.354Z,40.6
2022-12-15T07:51:24.499Z,37.8
2022-12-15T07:52:31.678Z,35.8
2022-12-15T07:53:38.850Z,38
2022-12-15T07:54:46.040Z,36.7
2022-12-15T07:56:06.613Z,51
2022-12-15T07:57:00.089Z,62.9
2022-12-15T07:58:07.276Z,64.1
2022-12-15T07:59:18.995Z,62.6
2022-12-15T08:00:37.536Z,75
2022-12-15T08:01:44.638Z,46.7
2022-12-15T08:02:51.787Z,41.2
2022-12-15T08:03:58.874Z,36.1
2022-12-15T08:05:05.780Z,123.3
2022-12-15T08:06:13.004Z,166.2
2022-12-15T08:07:20.140Z,135.3
2022-12-15T08:08:27.238Z,98.1
2022-12-15T08:09:34.423Z,70.8
2022-12-15T08:10:41.563Z,107
2022-12-15T08:11:48.699Z,285.4
2022-12-15T08:12:55.975Z,504.2
2022-12-15T08:14:04.886Z,495.5
2022-12-15T08:15:10.007Z,384.8
2022-12-15T08:16:17.201Z,266.4
2022-12-15T08:17:24.285Z,307.7
2022-12-15T08:18:31.504Z,270.2
2022-12-15T08:19:38.672Z,212.1
2022-12-15T08:20:45.709Z,210
2022-12-15T08:21:52.844Z,108.4
2022-12-15T08:22:59.887Z,53
2022-12-15T08:24:07.131Z,50
2022-12-15T08:25:14.249Z,168.5
2022-12-15T08:26:25.141Z,133.1
2022-12-15T08:27:28.484Z,109.3
2022-12-15T08:28:35.595Z,192.1
2022-12-15T08:29:51.325Z,150.3
2022-12-15T08:30:49.970Z,88.8
2022-12-15T08:31:57.111Z,63.9
2022-12-15T08:33:04.060Z,104.4
2022-12-15T08:34:11.179Z,113.5
2022-12-15T08:35:39.217Z,79.9
2022-12-15T08:36:26.465Z,50.2
2022-12-15T08:37:33.708Z,41.7
2022-12-15T08:38:40.827Z,43.4
2022-12-15T08:39:47.916Z,49.3
2022-12-15T08:40:55.171Z,50
2022-12-15T08:42:02.409Z,45.8
2022-12-15T08:43:09.779Z,34.2
2022-12-15T08:44:17.195Z,35.3
2022-12-15T08:45:24.127Z,34.4
2022-12-15T08:46:31.305Z,37.4
2022-12-15T08:47:38.368Z,37.4
2022-12-15T08:48:45.568Z,38.5
2022-12-15T08:49:52.701Z,53.1
2022-12-15T08:50:59.789Z,32.9
2022-12-15T08:52:06.830Z,35.3
2022-12-15T08:53:30.545Z,37.9
2022-12-15T08:54:21.135Z,33.5
2022-12-15T08:55:28.304Z,34
2022-12-15T08:56:35.598Z,36.8
2022-12-15T08:57:42.648Z,33.3
2022-12-15T08:58:49.728Z,33.6
2022-12-15T09:00:02.912Z,34.2
2022-12-15T09:01:10.564Z,35.6
2022-12-15T09:02:17.817Z,35.1
2022-12-15T09:03:24.834Z,35.1
2022-12-15T09:04:32.145Z,41
2022-12-15T09:05:39.160Z,44.8
2022-12-15T09:06:46.799Z,53.8
2022-12-15T09:07:53.918Z,46.6
2022-12-15T09:09:00.960Z,43.9
2022-12-15T09:10:08.159Z,38.5
2022-12-15T09:11:15.750Z,39.3
2022-12-15T09:12:22.853Z,40.7
2022-12-15T09:13:30.582Z,41.9
2022-12-15T09:14:37.210Z,39.4
2022-12-15T09:16:08.680Z,38.9
2022-12-15T09:16:51.510Z,38.3
2022-12-15T09:17:58.530Z,39.7
2022-12-15T09:19:05.596Z,56.6
2022-12-15T09:20:16.663Z,46.3
2022-12-15T09:21:19.853Z,38.2
2022-12-15T09:22:27.032Z,36.7
2022-12-15T09:23:35.015Z,38.7
2022-12-15T09:24:41.333Z,37.6
2022-12-15T09:25:48.423Z,37
2022-12-15T09:26:55.593Z,40.1
2022-12-15T09:28:02.795Z,38.1
2022-12-15T09:29:09.771Z,38.4
2022-12-15T09:30:16.884Z,40.1
2022-12-15T09:31:24.136Z,38.7
2022-12-15T09:32:31.176Z,41.3
2022-12-15T09:33:38.343Z,40.6
2022-12-15T09:34:45.538Z,43.1
2022-12-15T09:35:55.965Z,53.1
2022-12-15T09:37:06.269Z,55.2
2022-12-15T09:38:13.618Z,42.9
2022-12-15T09:39:20.558Z,40.4
2022-12-15T09:40:27.667Z,39.1
2022-12-15T09:41:34.790Z,37.6
2022-12-15T09:42:42.008Z,39.5
2022-12-15T09:43:49.710Z,38.8
2022-12-15T09:45:04.428Z,38.3
2022-12-15T09:46:16.633Z,38.1
2022-12-15T09:47:26.342Z,39
2022-12-15T09:48:43.681Z,39.4
2022-12-15T09:49:50.697Z,40
2022-12-15T09:51:00.826Z,39
2022-12-15T09:52:11.198Z,39.5
2022-12-15T09:53:45.343Z,41.5
2022-12-15T09:54:24.832Z,40.7
2022-12-15T09:55:31.890Z,40.9
2022-12-15T09:56:39.128Z,40
2022-12-15T09:57:49.281Z,41.1
2022-12-15T09:58:56.447Z,40.4
2022-12-15T10:00:03.458Z,41
2022-12-15T10:01:11.098Z,40
2022-12-15T10:02:25.933Z,41.3
2022-12-15T10:03:36.518Z,41.2
2022-12-15T10:04:53.465Z,39.8
2022-12-15T10:06:17.564Z,40.1
2022-12-15T10:07:18.458Z,40.2
2022-12-15T10:08:25.453Z,40.5
2022-12-15T10:09:32.604Z,40.7
2022-12-15T10:10:39.753Z,39.3
2022-12-15T10:11:57.091Z,40.5
2022-12-15T10:13:12.169Z,44.5
2022-12-15T10:14:24.436Z,40.7
2022-12-15T10:15:34.069Z,39
2022-12-15T10:18:01.615Z,39.3
2022-12-15T10:19:13.785Z,38.1
2022-12-15T10:20:28.758Z,38.9
2022-12-15T10:21:35.734Z,35.7
2022-12-15T10:22:42.870Z,35.8
2022-12-15T10:23:50.383Z,34.8
2022-12-15T10:25:12.454Z,36.5
2022-12-15T10:26:04.102Z,35.9
2022-12-15T10:27:21.381Z,37.7
2022-12-15T10:28:39.147Z,37.7
2022-12-15T10:29:56.516Z,37.5
2022-12-15T10:31:06.671Z,36.5
2022-12-15T10:32:19.358Z,36.9
2022-12-15T10:33:34.729Z,37.3
2022-12-15T10:34:41.320Z,36.9
2022-12-15T10:35:48.559Z,37.4
2022-12-15T10:36:55.615Z,38.4
2022-12-15T10:38:02.531Z,38.4
2022-12-15T10:39:12.830Z,36.4
2022-12-15T10:40:16.854Z,36.5
2022-12-15T10:41:23.901Z,36.8
2022-12-15T10:42:31.137Z,38.8
2022-12-15T10:43:38.384Z,38.1
2022-12-15T10:44:50.438Z,38.7
2022-12-15T10:45:57.639Z,39.4
2022-12-15T10:47:09.701Z,39
2022-12-15T10:48:22.083Z,39.6
2022-12-15T10:49:29.125Z,37.7
2022-12-15T10:50:36.258Z,40
2022-12-15T10:51:43.437Z,39.3
2022-12-15T10:52:50.570Z,38.8
2022-12-15T10:53:57.778Z,38.6
2022-12-15T10:55:04.783Z,38.9
2022-12-15T10:56:24.794Z,38
2022-12-15T10:57:29.250Z,38.8
2022-12-15T10:58:36.615Z,38.3
2022-12-15T10:59:50.302Z,38.7
2022-12-15T11:00:56.978Z,38
2022-12-15T11:02:09.465Z,38.2
2022-12-15T11:03:21.832Z,36.4
2022-12-15T11:04:28.837Z,37.3
2022-12-15T11:05:35.916Z,37.3
2022-12-15T11:06:43.085Z,36.4
2022-12-15T11:07:50.237Z,36.3
2022-12-15T11:08:57.277Z,35.6
2022-12-15T11:10:15.695Z,36.9
2022-12-15T11:11:30.329Z,36.4
2022-12-15T11:12:42.590Z,36.8
2022-12-15T11:14:02.807Z,33.2
2022-12-15T11:15:11.681Z,36.6
2022-12-15T11:16:26.386Z,35.9
2022-12-15T11:17:34.345Z,36.7
2022-12-15T11:18:41.532Z,36.7
2022-12-15T11:19:58.184Z,35.9
2022-12-15T11:21:04.028Z,34.8
2022-12-15T11:22:16.341Z,35.9
2022-12-15T11:23:34.612Z,35.8
2022-12-15T11:24:49.388Z,37.7
2022-12-15T11:25:58.095Z,36.2
2022-12-15T11:27:04.087Z,37.7
2022-12-15T11:28:16.317Z,38.4
2022-12-15T11:29:26.496Z,39.2
2022-12-15T11:30:36.234Z,38.8
2022-12-15T11:31:46.520Z,40.5
2022-12-15T11:32:53.531Z,43
2022-12-15T11:34:03.167Z,39.7
2022-12-15T11:35:13.388Z,40.7
2022-12-15T11:36:23.064Z,41.1
2022-12-15T11:37:37.900Z,41.4
2022-12-15T11:38:48.115Z,39.7
2022-12-15T11:40:00.374Z,41.3
2022-12-15T11:41:17.711Z,42.3
2022-12-15T11:42:32.892Z,41.1
2022-12-15T11:43:48.496Z,41.5
2022-12-15T11:45:04.911Z,41
2022-12-15T11:46:17.142Z,40.7
2022-12-15T11:47:29.399Z,39.9
2022-12-15T11:48:46.680Z,40
2022-12-15T11:49:58.915Z,38.2
2022-12-15T11:51:11.172Z,39
2022-12-15T11:52:20.727Z,38.5
2022-12-15T11:53:36.559Z,39.5
2022-12-15T11:54:43.184Z,40.7
2022-12-15T11:55:57.965Z,37.8
2022-12-15T11:57:15.166Z,39.9
2022-12-15T11:58:32.870Z,37.2
2022-12-15T11:59:49.840Z,39.1
2022-12-15T12:01:01.943Z,38.4
2022-12-15T12:02:12.346Z,39.9
2022-12-15T12:03:27.105Z,36.7
2022-12-15T12:04:42.227Z,39.2
2022-12-15T12:05:57.511Z,39.1
2022-12-15T12:07:09.716Z,40.1
2022-12-15T12:08:21.942Z,39.6
2022-12-15T12:09:29.091Z,41.4
2022-12-15T12:10:39.306Z,39.7
2022-12-15T12:11:54.088Z,37.5
2022-12-15T12:13:06.795Z,38.4
2022-12-15T12:14:24.078Z,39.3
2022-12-15T12:15:36.298Z,38.3
2022-12-15T12:16:48.681Z,39.6
2022-12-15T12:18:05.698Z,38.4
2022-12-15T12:19:20.578Z,37.3
2022-12-15T12:20:30.775Z,38.9
2022-12-15T12:21:50.859Z,39.8
2022-12-15T12:22:55.181Z,41.4
2022-12-15T12:24:07.823Z,40.5
2022-12-15T12:25:20.115Z,41.1
2022-12-15T12:26:27.111Z,40.4
2022-12-15T12:27:37.318Z,41.2
2022-12-15T12:28:44.472Z,38.7
2022-12-15T12:29:51.610Z,40.5
2022-12-15T12:31:03.746Z,40.2
2022-12-15T12:32:10.907Z,43.1
2022-12-15T12:33:20.594Z,42.7
2022-12-15T12:34:32.779Z,43.7
2022-12-15T12:35:42.532Z,44.6
2022-12-15T12:36:49.698Z,44
2022-12-15T12:38:01.132Z,45.3
2022-12-15T12:39:06.953Z,46.9
2022-12-15T12:40:13.973Z,44.8
2022-12-15T12:41:21.204Z,44.6
2022-12-15T12:42:38.596Z,47.9
2022-12-15T12:43:48.575Z,46
2022-12-15T12:44:55.949Z,46.4
2022-12-15T12:46:02.876Z,48.7
2022-12-15T12:47:20.264Z,47.3
2022-12-15T12:48:29.940Z,49.3
2022-12-15T12:49:42.220Z,47.1
2022-12-15T12:50:50.622Z,48.2
2022-12-15T12:51:56.633Z,48.3
2022-12-15T12:53:04.097Z,46.2
2022-12-15T12:54:11.121Z,45.2
2022-12-15T12:55:31.307Z,47.5
2022-12-15T12:56:44.209Z,46.4
2022-12-15T12:57:51.331Z,47.7
2022-12-15T12:58:58.510Z,47.3
2022-12-15T13:00:05.555Z,49.1
2022-12-15T13:01:20.570Z,45.8
2022-12-15T13:02:35.665Z,46.7
2022-12-15T13:03:42.613Z,46.7
2022-12-15T13:04:49.949Z,47.1
2022-12-15T13:06:05.495Z,47
2022-12-15T13:07:22.887Z,46.3
2022-12-15T13:08:35.655Z,45.3
2022-12-15T13:09:47.725Z,45.4
2022-12-15T13:10:52.907Z,47.8
2022-12-15T13:12:01.069Z,46
2022-12-15T13:13:07.095Z,49.8
2022-12-15T13:14:24.235Z,45.1
2022-12-15T13:15:29.501Z,48.7
2022-12-15T13:17:01.117Z,48
2022-12-15T13:17:49.671Z,46.7
2022-12-15T13:18:59.565Z,47.6
2022-12-15T13:20:06.629Z,46
2022-12-15T13:21:16.410Z,47.4
2022-12-15T13:22:34.346Z,48.5
2022-12-15T13:23:41.253Z,48.4
2022-12-15T13:24:48.610Z,48.2
2022-12-15T13:25:56.217Z,48.3
2022-12-15T13:27:02.594Z,46.4
2022-12-15T13:28:12.762Z,47.8
2022-12-15T13:29:25.109Z,47.7
2022-12-15T13:30:33.775Z,45.1
2022-12-15T13:31:43.882Z,44.9
2022-12-15T13:32:50.952Z,46.7
2022-12-15T13:33:58.323Z,46
2022-12-15T13:35:05.279Z,45
2022-12-15T13:36:15.844Z,48.1
2022-12-15T13:37:33.344Z,47.6
2022-12-15T13:38:55.313Z,47.3
2022-12-15T13:40:03.843Z,45.2
2022-12-15T13:41:21.264Z,48.8
2022-12-15T13:43:36.223Z,50.8
2022-12-15T13:44:43.144Z,50.6
2022-12-15T13:45:54.532Z,52.2
2022-12-15T13:47:04.484Z,50.8
2022-12-15T13:48:19.289Z,54.3
2022-12-15T13:49:34.049Z,54.2
2022-12-15T13:50:51.635Z,47.3
2022-12-15T13:52:06.588Z,46.6
2022-12-15T13:53:23.813Z,46
2022-12-15T13:54:31.029Z,45.5
2022-12-15T13:55:38.189Z,43.7
2022-12-15T13:56:45.333Z,43.5
2022-12-15T13:57:52.733Z,44.1
2022-12-15T13:59:10.226Z,43
2022-12-15T14:00:20.445Z,46
2022-12-15T14:01:32.192Z,45.2
2022-12-15T14:02:34.693Z,46.3
2022-12-15T14:03:41.963Z,46.8
2022-12-15T14:04:59.961Z,49.5
2022-12-15T14:06:11.306Z,47
2022-12-15T14:07:18.491Z,47
2022-12-15T14:08:25.615Z,48.4
2022-12-15T14:09:32.782Z,45.8
2022-12-15T14:10:40.047Z,48.7
2022-12-15T14:11:53.819Z,47.6
2022-12-15T14:12:59.475Z,48.4
2022-12-15T14:14:06.416Z,49.9
2022-12-15T14:15:13.605Z,49.1
2022-12-15T14:16:20.719Z,50.4
2022-12-15T14:17:27.853Z,51
2022-12-15T14:18:35.045Z,50.2
2022-12-15T14:19:45.248Z,50.8
2022-12-15T14:20:52.352Z,51.7
2022-12-15T14:21:59.461Z,56.1
2022-12-15T14:23:06.554Z,55.8
2022-12-15T14:25:34.598Z,56.7
2022-12-15T14:26:41.817Z,57.1
2022-12-15T14:27:50.615Z,56.2
2022-12-15T14:28:56.005Z,59.4
2022-12-15T14:30:05.598Z,55.2
2022-12-15T14:31:17.979Z,56
2022-12-15T14:32:25.017Z,52.3
2022-12-15T14:33:32.631Z,55.5
2022-12-15T14:34:39.261Z,53.2
2022-12-15T14:35:49.369Z,54.8
2022-12-15T14:36:54.172Z,54.7
2022-12-15T14:38:01.199Z,56.1
2022-12-15T14:39:08.594Z,55.2
2022-12-15T14:40:26.644Z,57.6
2022-12-15T14:41:29.174Z,55.1
2022-12-15T14:42:39.247Z,54.7
2022-12-15T14:43:46.443Z,60.3
2022-12-15T14:44:57.648Z,57.6
2022-12-15T14:46:00.746Z,56.7
2022-12-15T14:47:12.903Z,56.2
2022-12-15T14:48:40.395Z,57.6
2022-12-15T14:49:30.246Z,56.4
2022-12-15T14:50:42.435Z,56
2022-12-15T14:51:49.525Z,55.9
2022-12-15T14:52:56.962Z,59.8
2022-12-15T14:54:06.889Z,59.2
2022-12-15T14:55:24.208Z,63.5
2022-12-15T14:56:39.702Z,66.8
2022-12-15T14:57:46.737Z,66.6
2022-12-15T14:58:53.909Z,63.2
2022-12-15T15:00:03.958Z,63.5
2022-12-15T15:01:21.767Z,64.9
2022-12-15T15:02:37.262Z,62.7
2022-12-15T15:03:08.254Z,37.9
2022-12-15T15:03:08.548Z,57.8
2022-12-15T15:03:08.862Z,51.6
2022-12-15T15:03:44.149Z,58.6
2022-12-15T15:04:51.377Z,62.6
2022-12-15T15:06:03.538Z,64.5
2022-12-15T15:07:10.620Z,64.2
2022-12-15T15:08:17.714Z,65.3
2022-12-15T15:09:25.123Z,72.4
2022-12-15T15:10:31.957Z,69.7
2022-12-15T15:11:39.114Z,65.4
2022-12-15T15:12:46.329Z,66.5
2022-12-15T15:13:53.398Z,64.8
2022-12-15T15:15:00.510Z,66.3
2022-12-15T15:16:07.847Z,64.8
2022-12-15T15:17:18.481Z,66.1
2022-12-15T15:18:25.404Z,68
2022-12-15T15:19:36.130Z,68.5
2022-12-15T15:20:39.796Z,68.9
2022-12-15T15:21:46.856Z,69.3
2022-12-15T15:22:53.929Z,69.4
2022-12-15T15:24:11.237Z,70.7
2022-12-15T15:25:18.348Z,67.5
2022-12-15T15:26:28.008Z,72.5
2022-12-15T15:27:35.190Z,77.3
2022-12-15T15:28:42.530Z,76.1
2022-12-15T15:29:49.536Z,73.7
2022-12-15T15:30:56.821Z,82.3
2022-12-15T15:32:03.737Z,84.9